createdAt,value
2018-10-21T00:00:17.662Z,23.20
2018-10-21T00:02:46.403Z,23.20
2018-10-21T00:05:15.142Z,23.20
2018-10-21T00:07:43.915Z,23.20
2018-10-21T00:10:12.831Z,23.20
2018-10-21T00:12:41.607Z,23.10
2018-10-21T00:15:11.168Z,23.10
2018-10-21T00:17:39.936Z,23.10
2018-10-21T00:20:08.915Z,23.10
2018-10-21T00:22:37.679Z,23.10
2018-10-21T00:25:06.599Z,23.10
2018-10-21T00:27:35.405Z,23.10
2018-10-21T00:30:04.145Z,23.10
2018-10-21T00:32:51.730Z,23.10
2018-10-21T00:35:20.461Z,23.20
2018-10-21T00:37:49.220Z,23.20
2018-10-21T00:40:17.961Z,23.20
2018-10-21T00:42:46.724Z,23.30
2018-10-21T00:45:15.504Z,23.30
2018-10-21T00:47:44.194Z,23.40
2018-10-21T00:50:12.937Z,23.50
2018-10-21T00:52:41.720Z,23.60
2018-10-21T00:55:11.323Z,23.80
2018-10-21T00:57:40.198Z,23.90
2018-10-21T01:00:10.232Z,24.10
2018-10-21T01:02:39.216Z,24.30
2018-10-21T01:05:08.825Z,24.50
2018-10-21T01:07:37.558Z,24.80
2018-10-21T01:10:07.120Z,25.10
2018-10-21T01:12:36.003Z,25.30
2018-10-21T01:15:04.775Z,25.70
2018-10-21T01:17:33.474Z,26.10
2018-10-21T01:20:02.213Z,26.40
2018-10-21T01:22:30.955Z,26.40
2018-10-21T01:24:59.699Z,26.20
2018-10-21T01:27:28.426Z,25.90
2018-10-21T01:29:57.162Z,25.80
2018-10-21T01:32:25.902Z,25.60
2018-10-21T01:34:54.650Z,25.60
2018-10-21T01:37:23.390Z,25.50
2018-10-21T01:40:11.140Z,25.50
2018-10-21T01:42:39.878Z,25.60
2018-10-21T01:45:08.652Z,25.70
2018-10-21T01:47:37.361Z,25.80
2018-10-21T01:50:06.120Z,25.90
2018-10-21T01:52:34.856Z,26.10
2018-10-21T01:55:03.600Z,26.10
2018-10-21T01:57:32.338Z,26.20
2018-10-21T02:00:01.093Z,26.10
2018-10-21T02:02:29.874Z,26.00
2018-10-21T02:04:58.585Z,26.10
2018-10-21T02:07:27.325Z,26.00
2018-10-21T02:09:56.066Z,26.00
2018-10-21T02:12:24.809Z,25.90
2018-10-21T02:14:53.558Z,25.90
2018-10-21T02:17:22.290Z,25.80
2018-10-21T02:19:51.051Z,25.80
2018-10-21T02:22:19.789Z,25.70
2018-10-21T02:24:48.558Z,25.60
2018-10-21T02:27:17.327Z,25.60
2018-10-21T02:29:46.053Z,25.60
2018-10-21T02:32:14.788Z,25.50
2018-10-21T02:34:43.555Z,25.40
2018-10-21T02:37:12.321Z,25.30
2018-10-21T02:39:41.051Z,25.20
2018-10-21T02:42:09.795Z,25.20
2018-10-21T02:44:38.570Z,25.10
2018-10-21T02:47:07.310Z,25.00
2018-10-21T02:49:36.083Z,25.00
2018-10-21T02:52:08.652Z,24.90
2018-10-21T02:54:37.673Z,24.80
2018-10-21T02:57:07.427Z,24.80
2018-10-21T02:59:36.125Z,24.70
2018-10-21T03:02:04.866Z,24.70
2018-10-21T03:04:33.662Z,24.60
2018-10-21T03:07:02.423Z,24.50
2018-10-21T03:09:31.670Z,23.30
2018-10-21T03:12:00.495Z,23.30
2018-10-21T03:14:29.265Z,23.30
2018-10-21T03:16:58.010Z,23.20
2018-10-21T03:19:26.750Z,22.80
2018-10-21T03:21:55.498Z,22.40
2018-10-21T03:24:24.235Z,22.10
2018-10-21T03:26:52.986Z,22.00
2018-10-21T03:29:21.719Z,22.00
2018-10-21T03:31:50.465Z,22.00
2018-10-21T03:34:19.208Z,22.00
2018-10-21T03:36:47.947Z,22.00
2018-10-21T03:39:16.684Z,22.00
2018-10-21T03:41:45.428Z,22.00
2018-10-21T03:44:14.165Z,22.00
2018-10-21T03:46:42.908Z,22.00
2018-10-21T03:49:11.646Z,22.00
2018-10-21T03:51:40.408Z,22.00
2018-10-21T03:54:09.155Z,22.00
2018-10-21T03:56:37.898Z,22.10
2018-10-21T03:59:06.637Z,22.10
2018-10-21T04:01:35.415Z,22.10
2018-10-21T04:04:04.144Z,22.10
2018-10-21T04:06:32.864Z,22.20
2018-10-21T04:09:01.638Z,22.20
2018-10-21T04:11:30.347Z,22.30
2018-10-21T04:13:59.086Z,22.40
2018-10-21T04:16:27.828Z,22.50
2018-10-21T04:18:56.565Z,23.00
2018-10-21T04:21:25.309Z,23.60
2018-10-21T04:23:54.053Z,23.90
2018-10-21T04:26:22.793Z,24.10
2018-10-21T04:28:51.533Z,24.20
2018-10-21T04:31:20.276Z,24.20
2018-10-21T04:33:49.013Z,24.20
2018-10-21T04:36:19.737Z,24.10
2018-10-21T04:39:19.608Z,24.10
2018-10-21T04:41:48.352Z,24.10
2018-10-21T04:44:17.090Z,24.10
2018-10-21T04:46:45.926Z,24.10
2018-10-21T04:49:14.578Z,24.00
2018-10-21T04:51:43.322Z,24.00
2018-10-21T04:54:12.069Z,24.00
2018-10-21T04:56:40.842Z,23.90
2018-10-21T04:59:09.590Z,23.90
2018-10-21T05:01:38.360Z,23.90
2018-10-21T05:04:07.145Z,23.70
2018-10-21T05:06:35.905Z,23.00
2018-10-21T05:09:05.108Z,23.10
2018-10-21T05:11:33.877Z,22.80
2018-10-21T05:14:02.619Z,22.90
2018-10-21T05:16:31.425Z,23.90
2018-10-21T05:19:00.136Z,24.90
2018-10-21T05:21:28.913Z,25.40
2018-10-21T05:23:57.691Z,25.80
2018-10-21T05:26:26.431Z,26.10
2018-10-21T05:28:55.180Z,26.40
2018-10-21T05:31:23.951Z,26.60
2018-10-21T05:33:53.085Z,26.90
2018-10-21T05:36:21.852Z,27.30
2018-10-21T05:38:50.596Z,27.70
2018-10-21T05:41:19.413Z,28.10
2018-10-21T05:43:48.126Z,28.50
2018-10-21T05:46:34.722Z,28.90
2018-10-21T05:49:03.461Z,29.80
2018-10-21T05:51:32.230Z,31.20
2018-10-21T05:54:00.975Z,32.10
2018-10-21T05:56:29.746Z,32.30
2018-10-21T05:58:58.487Z,33.00
2018-10-21T06:01:27.264Z,34.10
2018-10-21T06:03:56.027Z,34.70
2018-10-21T06:06:24.766Z,35.00
2018-10-21T06:08:53.517Z,35.30
2018-10-21T06:11:22.267Z,35.50
2018-10-21T06:13:51.016Z,35.70
2018-10-21T06:16:19.795Z,35.80
2018-10-21T06:18:48.505Z,36.00
2018-10-21T06:21:17.242Z,36.20
2018-10-21T06:23:46.011Z,36.30
2018-10-21T06:26:14.747Z,36.50
2018-10-21T06:28:43.498Z,36.70
2018-10-21T06:31:12.274Z,36.60
2018-10-21T06:33:41.039Z,37.00
2018-10-21T06:36:09.739Z,37.10
2018-10-21T06:38:38.484Z,37.10
2018-10-21T06:41:07.227Z,37.10
2018-10-21T06:43:35.975Z,37.60
2018-10-21T06:46:04.722Z,36.90
2018-10-21T06:48:33.534Z,36.30
2018-10-21T06:51:02.248Z,35.80
2018-10-21T06:53:30.966Z,35.80
2018-10-21T06:55:59.704Z,36.40
2018-10-21T06:58:28.455Z,36.50
2018-10-21T07:00:57.191Z,36.40
2018-10-21T07:03:25.952Z,36.00
2018-10-21T07:06:30.496Z,35.40
2018-10-21T07:09:00.539Z,35.90
2018-10-21T07:11:29.283Z,36.40
2018-10-21T07:13:58.031Z,36.10
2018-10-21T07:16:26.943Z,35.70
2018-10-21T07:18:55.523Z,35.10
2018-10-21T07:21:24.257Z,35.80
2018-10-21T07:23:53.017Z,36.20
2018-10-21T07:26:21.778Z,36.00
2018-10-21T07:28:50.523Z,35.40
2018-10-21T07:31:19.269Z,34.90
2018-10-21T07:33:48.024Z,35.20
2018-10-21T07:36:16.787Z,35.80
2018-10-21T07:38:45.586Z,35.90
2018-10-21T07:41:14.328Z,35.50
2018-10-21T07:43:43.105Z,35.20
2018-10-21T07:46:11.900Z,34.80
2018-10-21T07:48:40.625Z,35.40
2018-10-21T07:51:09.373Z,36.00
2018-10-21T07:53:38.154Z,34.80
2018-10-21T07:56:06.917Z,33.80
2018-10-21T07:58:35.977Z,33.10
2018-10-21T08:01:04.800Z,33.00
2018-10-21T08:03:33.494Z,33.40
2018-10-21T08:06:21.101Z,30.60
2018-10-21T08:08:50.030Z,26.40
2018-10-21T08:11:18.615Z,25.90
2018-10-21T08:13:47.384Z,26.10
2018-10-21T08:16:16.188Z,26.00
2018-10-21T08:18:44.908Z,26.20
2018-10-21T08:21:13.680Z,26.40
2018-10-21T08:23:42.462Z,26.20
2018-10-21T08:26:11.173Z,26.50
2018-10-21T08:28:39.955Z,26.30
2018-10-21T08:31:08.728Z,27.10
2018-10-21T08:33:37.486Z,28.40
2018-10-21T08:36:06.608Z,29.30
2018-10-21T08:38:35.559Z,29.80
2018-10-21T08:41:04.308Z,29.70
2018-10-21T08:43:33.138Z,29.30
2018-10-21T08:46:01.957Z,29.30
2018-10-21T08:48:30.818Z,29.00
2018-10-21T08:50:59.565Z,28.50
2018-10-21T08:53:28.353Z,28.10
2018-10-21T08:55:57.200Z,27.70
2018-10-21T08:58:25.854Z,27.40
2018-10-21T09:00:54.643Z,27.00
2018-10-21T09:03:23.348Z,26.30
2018-10-21T09:05:52.130Z,26.00
2018-10-21T09:08:20.844Z,25.80
2018-10-21T09:10:49.634Z,25.80
2018-10-21T09:13:18.347Z,25.70
2018-10-21T09:15:47.090Z,25.70
2018-10-21T09:18:15.828Z,25.60
2018-10-21T09:20:44.575Z,25.50
2018-10-21T09:23:13.300Z,25.80
2018-10-21T09:25:42.065Z,26.10
2018-10-21T09:28:10.841Z,26.20
2018-10-21T09:30:39.532Z,26.40
2018-10-21T09:33:08.324Z,26.50
2018-10-21T09:35:37.053Z,26.70
2018-10-21T09:38:06.091Z,26.90
2018-10-21T09:40:34.861Z,27.10
2018-10-21T09:43:03.630Z,27.40
2018-10-21T09:45:32.376Z,27.70
2018-10-21T09:48:01.117Z,28.00
2018-10-21T09:50:29.923Z,28.30
2018-10-21T09:52:58.629Z,28.50
2018-10-21T09:55:27.397Z,28.80
2018-10-21T09:57:56.142Z,29.20
2018-10-21T10:00:42.340Z,29.50
2018-10-21T10:03:11.087Z,29.70
2018-10-21T10:05:39.851Z,29.80
2018-10-21T10:08:08.593Z,29.90
2018-10-21T10:10:37.354Z,30.10
2018-10-21T10:13:06.147Z,30.40
2018-10-21T10:15:34.857Z,30.40
2018-10-21T10:18:03.593Z,30.50
2018-10-21T10:20:32.404Z,30.50
2018-10-21T10:23:01.144Z,30.20
2018-10-21T10:25:29.915Z,29.80
2018-10-21T10:27:58.706Z,29.60
2018-10-21T10:30:27.483Z,29.40
2018-10-21T10:32:56.157Z,29.20
2018-10-21T10:35:24.935Z,29.00
2018-10-21T10:37:53.673Z,29.00
2018-10-21T10:40:22.482Z,28.90
2018-10-21T10:42:51.178Z,28.90
2018-10-21T10:45:19.948Z,28.90
2018-10-21T10:47:48.687Z,28.90
2018-10-21T10:50:17.448Z,28.80
2018-10-21T10:52:46.236Z,28.70
2018-10-21T10:55:14.967Z,28.60
2018-10-21T10:57:43.677Z,28.50
2018-10-21T11:00:13.081Z,28.30
2018-10-21T11:02:41.745Z,28.20
2018-10-21T11:05:11.203Z,28.00
2018-10-21T11:07:39.951Z,27.90
2018-10-21T11:10:09.413Z,27.70
2018-10-21T11:12:38.160Z,27.60
2018-10-21T11:15:07.586Z,26.30
2018-10-21T11:17:36.369Z,24.40
2018-10-21T11:20:05.476Z,23.30
2018-10-21T11:22:34.270Z,22.60
2018-10-21T11:25:03.003Z,22.00
2018-10-21T11:27:31.706Z,21.50
2018-10-21T11:30:00.445Z,21.20
2018-10-21T11:32:29.208Z,21.10
2018-10-21T11:34:57.945Z,21.00
2018-10-21T11:37:28.656Z,20.90
2018-10-21T11:39:57.301Z,20.90
2018-10-21T11:42:26.063Z,20.90
2018-10-21T11:44:54.801Z,20.90
2018-10-21T11:47:23.571Z,21.00
2018-10-21T11:49:52.313Z,21.00
2018-10-21T11:52:21.149Z,21.00
2018-10-21T11:54:49.820Z,21.00
2018-10-21T11:57:18.597Z,21.00
2018-10-21T11:59:47.697Z,21.00
2018-10-21T12:02:16.459Z,21.20
2018-10-21T12:04:45.225Z,21.30
2018-10-21T12:07:14.021Z,21.30
2018-10-21T12:09:42.761Z,21.40
2018-10-21T12:12:11.546Z,21.50
2018-10-21T12:14:40.286Z,21.60
2018-10-21T12:17:09.055Z,21.60
2018-10-21T12:19:37.789Z,21.70
2018-10-21T12:22:06.633Z,21.80
2018-10-21T12:24:35.341Z,21.90
2018-10-21T12:27:04.109Z,21.90
2018-10-21T12:29:32.845Z,22.00
2018-10-21T12:32:01.621Z,22.00
2018-10-21T12:34:30.356Z,22.00
2018-10-21T12:36:59.166Z,22.00
2018-10-21T12:39:27.861Z,22.00
2018-10-21T12:41:56.630Z,22.00
2018-10-21T12:44:25.408Z,22.00
2018-10-21T12:46:54.141Z,22.00
2018-10-21T12:49:22.868Z,22.00
2018-10-21T12:51:51.651Z,22.00
2018-10-21T12:54:20.372Z,21.90
2018-10-21T12:56:49.098Z,21.90
2018-10-21T12:59:17.845Z,21.90
2018-10-21T13:01:46.593Z,21.90
2018-10-21T13:04:15.406Z,21.80
2018-10-21T13:06:44.067Z,21.80
2018-10-21T13:09:12.818Z,21.80
2018-10-21T13:11:41.560Z,21.70
2018-10-21T13:14:10.311Z,21.70
2018-10-21T13:16:39.103Z,21.60
2018-10-21T13:19:07.877Z,21.60
2018-10-21T13:21:36.539Z,21.60
2018-10-21T13:24:05.286Z,21.70
2018-10-21T13:26:34.029Z,21.90
2018-10-21T13:29:02.808Z,22.10
2018-10-21T13:31:31.551Z,22.40
2018-10-21T13:34:00.305Z,22.60
2018-10-21T13:36:29.039Z,22.70
2018-10-21T13:38:57.813Z,22.80
2018-10-21T13:41:26.557Z,22.90
2018-10-21T13:43:55.326Z,22.70
2018-10-21T13:46:24.143Z,22.50
2018-10-21T13:48:53.139Z,22.30
2018-10-21T13:51:21.884Z,22.20
2018-10-21T13:53:50.651Z,22.10
2018-10-21T13:56:19.389Z,22.00
2018-10-21T13:58:48.163Z,21.90
2018-10-21T14:01:16.912Z,21.70
2018-10-21T14:03:45.679Z,21.60
2018-10-21T14:06:14.421Z,21.60
2018-10-21T14:08:43.185Z,21.40
2018-10-21T14:11:11.927Z,21.30
2018-10-21T14:13:40.698Z,21.30
2018-10-21T14:16:09.621Z,21.20
2018-10-21T14:18:38.295Z,21.20
2018-10-21T14:21:06.969Z,21.20
2018-10-21T14:23:35.737Z,21.10
2018-10-21T14:26:04.503Z,21.10
2018-10-21T14:28:33.281Z,21.00
2018-10-21T14:31:02.079Z,20.90
2018-10-21T14:33:30.801Z,20.90
2018-10-21T14:35:59.571Z,20.90
2018-10-21T14:38:28.412Z,20.80
2018-10-21T14:40:57.059Z,20.70
2018-10-21T14:43:25.835Z,20.70
2018-10-21T14:45:54.640Z,20.70
2018-10-21T14:48:23.348Z,20.70
2018-10-21T14:50:52.087Z,20.80
2018-10-21T14:53:20.833Z,20.80
2018-10-21T14:55:49.589Z,20.80
2018-10-21T14:58:18.332Z,20.70
2018-10-21T15:00:47.081Z,20.70
2018-10-21T15:03:17.733Z,20.70
2018-10-21T15:05:44.575Z,20.70
2018-10-21T15:08:13.383Z,20.70
2018-10-21T15:10:42.078Z,20.70
2018-10-21T15:13:10.836Z,20.70
2018-10-21T15:15:39.666Z,20.80
2018-10-21T15:18:08.379Z,20.80
2018-10-21T15:20:37.083Z,20.90
2018-10-21T15:23:06.197Z,21.00
2018-10-21T15:25:34.812Z,21.10
2018-10-21T15:28:06.182Z,21.30
2018-10-21T15:30:35.229Z,21.50
2018-10-21T15:33:08.038Z,21.60
2018-10-21T15:35:39.570Z,21.80
2018-10-21T15:38:11.003Z,21.80
2018-10-21T15:40:42.509Z,21.80
2018-10-21T15:43:14.245Z,21.70
2018-10-21T15:45:44.943Z,21.00
2018-10-21T15:48:16.641Z,21.00
2018-10-21T15:50:49.690Z,21.00
2018-10-21T15:53:21.490Z,21.10
2018-10-21T15:55:52.494Z,21.40
2018-10-21T15:58:24.528Z,21.40
2018-10-21T16:00:56.877Z,21.40
2018-10-21T16:03:29.166Z,21.40
2018-10-21T16:06:00.213Z,21.30
2018-10-21T16:08:31.975Z,21.20
2018-10-21T16:11:03.262Z,21.20
2018-10-21T16:13:34.887Z,21.10
2018-10-21T16:16:06.643Z,21.00
2018-10-21T16:18:38.671Z,20.90
2018-10-21T16:21:10.738Z,20.90
2018-10-21T16:23:42.024Z,20.80
2018-10-21T16:26:13.620Z,20.70
2018-10-21T16:28:44.998Z,20.60
2018-10-21T16:31:17.285Z,20.60
2018-10-21T16:33:48.098Z,20.60
2018-10-21T16:36:19.482Z,20.60
2018-10-21T16:38:51.828Z,20.70
2018-10-21T16:41:27.981Z,20.70
2018-10-21T16:44:01.054Z,20.70
2018-10-21T16:46:31.377Z,20.70
2018-10-21T16:48:59.997Z,20.70
2018-10-21T16:51:28.797Z,20.70
2018-10-21T16:53:57.502Z,20.70
2018-10-21T16:56:26.239Z,20.70
2018-10-21T16:58:55.018Z,20.70
2018-10-21T17:01:23.736Z,20.60
2018-10-21T17:03:52.566Z,20.60
2018-10-21T17:06:21.241Z,20.60
2018-10-21T17:08:49.987Z,20.50
2018-10-21T17:11:18.777Z,20.50
2018-10-21T17:13:47.489Z,20.40
2018-10-21T17:16:16.361Z,20.40
2018-10-21T17:18:44.979Z,20.30
2018-10-21T17:21:13.733Z,20.40
2018-10-21T17:23:42.472Z,20.50
2018-10-21T17:26:11.217Z,20.60
2018-10-21T17:28:39.959Z,20.70
2018-10-21T17:31:08.773Z,20.80
2018-10-21T17:33:37.438Z,20.80
2018-10-21T17:36:06.366Z,20.80
2018-10-21T17:38:35.245Z,20.80
2018-10-21T17:41:03.989Z,20.90
2018-10-21T17:43:32.735Z,20.80
2018-10-21T17:46:01.501Z,20.80
2018-10-21T17:48:30.259Z,20.70
2018-10-21T17:50:59.017Z,20.70
2018-10-21T17:53:27.747Z,20.40
2018-10-21T17:55:56.549Z,20.20
2018-10-21T17:58:25.366Z,20.10
2018-10-21T18:00:54.109Z,20.20
2018-10-21T18:03:22.827Z,20.30
2018-10-21T18:05:51.653Z,19.70
2018-10-21T18:08:20.409Z,18.50
2018-10-21T18:10:49.152Z,20.60
2018-10-21T18:13:17.970Z,22.30
2018-10-21T18:15:49.006Z,22.70
2018-10-21T18:18:20.069Z,23.00
2018-10-21T18:20:51.391Z,23.80
2018-10-21T18:23:23.074Z,24.90
2018-10-21T18:25:52.845Z,26.00
2018-10-21T18:28:23.925Z,26.70
2018-10-21T18:30:55.618Z,27.40
2018-10-21T18:33:26.189Z,28.00
2018-10-21T18:35:57.306Z,28.50
2018-10-21T18:38:27.884Z,29.00
2018-10-21T18:40:58.882Z,29.60
2018-10-21T18:43:30.287Z,30.00
2018-10-21T18:46:02.252Z,30.60
2018-10-21T18:48:33.978Z,31.00
2018-10-21T18:51:05.449Z,31.40
2018-10-21T18:53:37.205Z,31.60
2018-10-21T18:56:08.421Z,32.00
2018-10-21T18:58:39.746Z,32.50
2018-10-21T19:01:11.296Z,32.70
2018-10-21T19:03:41.541Z,33.00
2018-10-21T19:06:13.021Z,33.40
2018-10-21T19:08:44.326Z,33.70
2018-10-21T19:11:15.379Z,34.20
2018-10-21T19:13:47.171Z,34.50
2018-10-21T19:16:18.815Z,34.80
2018-10-21T19:18:49.497Z,33.10
2018-10-21T19:21:20.965Z,31.90
2018-10-21T19:23:51.481Z,31.20
2018-10-21T19:26:23.511Z,31.20
2018-10-21T19:28:54.338Z,31.20
2018-10-21T19:31:26.493Z,31.10
2018-10-21T19:33:57.854Z,31.20
2018-10-21T19:36:29.708Z,31.30
2018-10-21T19:39:00.112Z,31.50
2018-10-21T19:41:31.844Z,31.80
2018-10-21T19:44:02.746Z,32.00
2018-10-21T19:46:35.174Z,31.90
2018-10-21T19:49:06.152Z,31.90
2018-10-21T19:51:37.252Z,31.40
2018-10-21T19:54:09.378Z,31.20
2018-10-21T19:56:38.089Z,31.00
2018-10-21T19:59:06.838Z,31.00
2018-10-21T20:01:35.582Z,31.00
2018-10-21T20:04:04.384Z,30.80
2018-10-21T20:06:33.096Z,30.70
2018-10-21T20:09:01.851Z,30.60
2018-10-21T20:11:30.597Z,30.50
2018-10-21T20:13:59.352Z,30.20
2018-10-21T20:16:28.093Z,30.00
2018-10-21T20:18:56.860Z,29.70
2018-10-21T20:21:25.593Z,29.50
2018-10-21T20:23:54.352Z,29.30
2018-10-21T20:26:23.106Z,29.20
2018-10-21T20:28:51.866Z,29.10
2018-10-21T20:31:20.690Z,29.20
2018-10-21T20:33:49.418Z,29.40
2018-10-21T20:36:18.119Z,29.60
2018-10-21T20:38:46.861Z,29.80
2018-10-21T20:41:15.594Z,29.90
2018-10-21T20:43:44.345Z,29.90
2018-10-21T20:46:13.135Z,29.80
2018-10-21T20:48:41.872Z,29.60
2018-10-21T20:51:10.641Z,29.50
2018-10-21T20:53:39.358Z,29.30
2018-10-21T20:56:08.096Z,29.10
2018-10-21T20:58:36.854Z,28.90
2018-10-21T21:01:05.597Z,28.70
2018-10-21T21:03:34.351Z,28.60
2018-10-21T21:06:03.102Z,28.40
2018-10-21T21:08:31.844Z,28.20
2018-10-21T21:11:00.788Z,28.00
2018-10-21T21:13:29.566Z,27.90
2018-10-21T21:15:58.323Z,27.80
2018-10-21T21:18:27.115Z,27.70
2018-10-21T21:20:55.862Z,27.60
2018-10-21T21:23:24.638Z,27.40
2018-10-21T21:25:53.378Z,27.30
2018-10-21T21:28:22.152Z,27.40
2018-10-21T21:30:50.894Z,26.50
2018-10-21T21:33:19.697Z,24.00
2018-10-21T21:35:48.436Z,22.80
2018-10-21T21:38:17.228Z,22.50
2018-10-21T21:40:45.983Z,22.70
2018-10-21T21:43:14.751Z,23.20
2018-10-21T21:45:43.506Z,24.00
2018-10-21T21:48:12.355Z,25.30
2018-10-21T21:50:41.034Z,26.70
2018-10-21T21:53:09.797Z,27.40
2018-10-21T21:55:38.548Z,27.50
2018-10-21T21:58:07.650Z,27.50
2018-10-21T22:00:36.334Z,27.30
2018-10-21T22:03:05.284Z,27.10
2018-10-21T22:05:34.030Z,25.50
2018-10-21T22:08:02.809Z,23.20
2018-10-21T22:10:31.553Z,23.00
2018-10-21T22:13:00.325Z,23.70
2018-10-21T22:15:29.196Z,24.40
2018-10-21T22:17:57.945Z,25.70
2018-10-21T22:20:26.692Z,27.00
2018-10-21T22:22:55.435Z,27.80
2018-10-21T22:25:24.192Z,28.10
2018-10-21T22:27:52.931Z,27.20
2018-10-21T22:30:21.687Z,26.90
2018-10-21T22:32:50.434Z,27.00
2018-10-21T22:35:19.184Z,27.30
2018-10-21T22:37:47.927Z,27.60
2018-10-21T22:40:16.753Z,27.80
2018-10-21T22:42:45.414Z,28.00
2018-10-21T22:45:14.164Z,28.20
2018-10-21T22:47:42.905Z,28.50
2018-10-21T22:50:12.573Z,28.40
2018-10-21T22:52:41.861Z,28.20
2018-10-21T22:55:10.762Z,27.90
2018-10-21T22:57:39.496Z,27.60
2018-10-21T23:00:08.847Z,27.40
2018-10-21T23:02:37.552Z,27.30
2018-10-21T23:05:06.953Z,27.20
2018-10-21T23:07:35.926Z,27.20
2018-10-21T23:10:04.726Z,27.40
2018-10-21T23:12:33.411Z,27.40
2018-10-21T23:15:02.163Z,27.40
2018-10-21T23:17:30.903Z,27.50
2018-10-21T23:19:59.653Z,27.50
2018-10-21T23:22:28.397Z,27.30
2018-10-21T23:24:57.183Z,27.20
2018-10-21T23:27:25.958Z,27.10
2018-10-21T23:29:54.740Z,27.20
2018-10-21T23:32:23.437Z,27.20
2018-10-21T23:34:52.210Z,27.20
2018-10-21T23:37:20.950Z,27.10
2018-10-21T23:39:49.721Z,26.90
2018-10-21T23:42:18.579Z,26.70
2018-10-21T23:44:47.250Z,26.50
2018-10-21T23:47:15.992Z,26.40
2018-10-21T23:49:44.764Z,26.40
2018-10-21T23:52:13.559Z,26.60
2018-10-21T23:54:42.282Z,26.80
2018-10-21T23:57:11.025Z,27.00
2018-10-21T23:59:39.837Z,27.00
